createdAt,value
2022-10-27T00:00:12.786Z,100.00
2022-10-27T00:02:39.800Z,100.00
2022-10-27T00:05:06.534Z,100.00
2022-10-27T00:07:35.653Z,100.00
2022-10-27T00:10:02.186Z,100.00
2022-10-27T00:12:30.659Z,100.00
2022-10-27T00:14:57.219Z,100.00
2022-10-27T00:17:23.892Z,100.00
2022-10-27T00:19:50.520Z,100.00
2022-10-27T00:22:17.127Z,100.00
2022-10-27T00:24:43.808Z,100.00
2022-10-27T00:27:10.349Z,100.00
2022-10-27T00:29:36.909Z,100.00
2022-10-27T00:32:03.547Z,100.00
2022-10-27T00:34:30.352Z,100.00
2022-10-27T00:36:56.896Z,100.00
2022-10-27T00:39:23.479Z,100.00
2022-10-27T00:41:50.157Z,100.00
2022-10-27T00:44:36.457Z,100.00
2022-10-27T00:47:25.559Z,100.00
2022-10-27T00:50:15.496Z,100.00
2022-10-27T00:53:00.264Z,100.00
2022-10-27T00:55:30.848Z,100.00
2022-10-27T00:57:58.112Z,100.00
2022-10-27T01:00:24.938Z,100.00
2022-10-27T01:02:51.868Z,100.00
2022-10-27T01:05:20.375Z,100.00
2022-10-27T01:07:47.621Z,100.00
2022-10-27T01:10:14.495Z,100.00
2022-10-27T01:12:41.241Z,100.00
2022-10-27T01:15:08.521Z,100.00
2022-10-27T01:17:41.124Z,100.00
2022-10-27T01:20:22.529Z,100.00
2022-10-27T01:23:26.635Z,100.00
2022-10-27T01:26:08.240Z,100.00
2022-10-27T01:29:05.294Z,100.00
2022-10-27T01:31:58.258Z,100.00
2022-10-27T01:34:36.462Z,100.00
2022-10-27T01:37:15.738Z,100.00
2022-10-27T01:40:04.351Z,100.00
2022-10-27T01:43:04.528Z,100.00
2022-10-27T01:45:32.682Z,100.00
2022-10-27T01:47:59.403Z,100.00
2022-10-27T01:51:00.563Z,100.00
2022-10-27T01:53:29.563Z,100.00
2022-10-27T01:56:02.307Z,100.00
2022-10-27T01:58:52.990Z,100.00
2022-10-27T02:01:32.669Z,100.00
2022-10-27T02:04:35.063Z,100.00
2022-10-27T02:07:30.073Z,100.00
2022-10-27T02:10:19.772Z,100.00
2022-10-27T02:12:46.390Z,100.00
2022-10-27T02:15:32.559Z,100.00
2022-10-27T02:18:15.549Z,100.00
2022-10-27T02:20:44.204Z,100.00
2022-10-27T02:23:14.186Z,100.00
2022-10-27T02:25:50.639Z,100.00
2022-10-27T02:28:17.888Z,100.00
2022-10-27T02:30:44.550Z,100.00
2022-10-27T02:33:11.241Z,100.00
2022-10-27T02:35:37.879Z,100.00
2022-10-27T02:38:04.349Z,100.00
2022-10-27T02:40:30.984Z,100.00
2022-10-27T02:42:57.607Z,100.00
2022-10-27T02:45:24.195Z,100.00
2022-10-27T02:47:50.691Z,100.00
2022-10-27T02:50:17.366Z,100.00
2022-10-27T02:52:44.152Z,100.00
2022-10-27T02:55:10.821Z,100.00
2022-10-27T02:57:37.384Z,100.00
2022-10-27T03:00:05.382Z,100.00
2022-10-27T03:02:32.159Z,100.00
2022-10-27T03:04:58.650Z,100.00
2022-10-27T03:07:25.170Z,100.00
2022-10-27T03:09:51.783Z,100.00
2022-10-27T03:12:18.434Z,100.00
2022-10-27T03:14:45.141Z,100.00
2022-10-27T03:17:11.995Z,100.00
2022-10-27T03:19:38.651Z,100.00
2022-10-27T03:22:05.329Z,100.00
2022-10-27T03:24:31.953Z,100.00
2022-10-27T03:26:58.614Z,100.00
2022-10-27T03:29:25.184Z,100.00
2022-10-27T03:31:51.839Z,100.00
2022-10-27T03:34:20.289Z,100.00
2022-10-27T03:36:48.113Z,100.00
2022-10-27T03:39:14.891Z,100.00
2022-10-27T03:41:41.524Z,100.00
2022-10-27T03:44:08.051Z,100.00
2022-10-27T03:46:34.664Z,100.00
2022-10-27T03:49:01.261Z,100.00
2022-10-27T03:51:27.956Z,100.00
2022-10-27T03:53:56.235Z,100.00
2022-10-27T03:56:22.852Z,100.00
2022-10-27T03:58:49.506Z,100.00
2022-10-27T04:01:16.270Z,100.00
2022-10-27T04:03:42.886Z,100.00
2022-10-27T04:06:09.456Z,100.00
2022-10-27T04:08:36.069Z,100.00
2022-10-27T04:11:02.691Z,100.00
2022-10-27T04:13:30.794Z,100.00
2022-10-27T04:16:01.113Z,100.00
2022-10-27T04:18:27.623Z,100.00
2022-10-27T04:20:54.169Z,100.00
2022-10-27T04:23:20.757Z,100.00
2022-10-27T04:25:47.376Z,100.00
2022-10-27T04:28:14.102Z,100.00
2022-10-27T04:30:40.795Z,100.00
2022-10-27T04:33:07.471Z,100.00
2022-10-27T04:38:05.553Z,100.00
2022-10-27T04:40:32.122Z,100.00
2022-10-27T04:42:58.793Z,100.00
2022-10-27T04:45:25.986Z,100.00
2022-10-27T04:47:52.796Z,100.00
2022-10-27T04:50:19.654Z,100.00
2022-10-27T04:52:56.686Z,100.00
2022-10-27T04:55:23.909Z,100.00
2022-10-27T04:57:50.460Z,100.00
2022-10-27T05:00:18.019Z,100.00
2022-10-27T05:02:45.044Z,100.00
2022-10-27T05:05:11.675Z,100.00
2022-10-27T05:07:38.311Z,100.00
2022-10-27T05:10:05.277Z,100.00
2022-10-27T05:12:31.903Z,100.00
2022-10-27T05:14:58.602Z,100.00
2022-10-27T05:17:25.313Z,100.00
2022-10-27T05:19:52.031Z,100.00
2022-10-27T05:22:18.746Z,100.00
2022-10-27T05:24:45.405Z,100.00
2022-10-27T05:27:11.967Z,100.00
2022-10-27T05:29:38.650Z,100.00
2022-10-27T05:32:05.233Z,100.00
2022-10-27T05:34:31.836Z,100.00
2022-10-27T05:36:58.362Z,100.00
2022-10-27T05:39:25.872Z,100.00
2022-10-27T05:41:52.529Z,100.00
2022-10-27T05:44:19.253Z,100.00
2022-10-27T05:46:46.385Z,100.00
2022-10-27T05:49:13.054Z,100.00
2022-10-27T05:51:40.699Z,100.00
2022-10-27T05:54:07.191Z,100.00
2022-10-27T05:56:33.718Z,100.00
2022-10-27T05:59:00.293Z,100.00
2022-10-27T06:01:27.040Z,100.00
2022-10-27T06:03:53.642Z,100.00
2022-10-27T06:06:20.283Z,100.00
2022-10-27T06:08:46.825Z,100.00
2022-10-27T06:11:13.353Z,100.00
2022-10-27T06:13:40.060Z,100.00
2022-10-27T06:16:08.320Z,100.00
2022-10-27T06:18:37.345Z,100.00
2022-10-27T06:21:03.993Z,100.00
2022-10-27T06:23:30.537Z,100.00
2022-10-27T06:25:57.118Z,100.00
2022-10-27T06:28:23.657Z,100.00
2022-10-27T06:30:50.275Z,100.00
2022-10-27T06:33:16.776Z,100.00
2022-10-27T06:35:45.423Z,100.00
2022-10-27T06:38:12.008Z,100.00
2022-10-27T06:40:38.558Z,100.00
2022-10-27T06:43:08.785Z,100.00
2022-10-27T06:45:35.873Z,100.00
2022-10-27T06:48:02.492Z,100.00
2022-10-27T06:50:29.341Z,100.00
2022-10-27T06:52:56.732Z,100.00
2022-10-27T06:55:23.345Z,100.00
2022-10-27T06:57:50.247Z,100.00
2022-10-27T07:00:17.789Z,100.00
2022-10-27T07:02:44.529Z,100.00
2022-10-27T07:05:11.152Z,100.00
2022-10-27T07:07:37.834Z,100.00
2022-10-27T07:10:05.802Z,100.00
2022-10-27T07:12:32.543Z,100.00
2022-10-27T07:14:59.109Z,100.00
2022-10-27T07:17:25.637Z,100.00
2022-10-27T07:19:52.173Z,100.00
2022-10-27T07:22:19.033Z,100.00
2022-10-27T07:24:45.537Z,100.00
2022-10-27T07:27:12.237Z,100.00
2022-10-27T07:29:38.712Z,100.00
2022-10-27T07:32:05.370Z,100.00
2022-10-27T07:34:32.037Z,100.00
2022-10-27T07:37:09.101Z,100.00
2022-10-27T07:39:43.381Z,100.00
2022-10-27T07:45:04.767Z,100.00
2022-10-27T07:47:31.583Z,100.00
2022-10-27T07:49:58.350Z,100.00
2022-10-27T07:52:24.989Z,100.00
2022-10-27T07:54:51.589Z,100.00
2022-10-27T07:57:18.690Z,100.00
2022-10-27T07:59:45.637Z,100.00
2022-10-27T08:02:12.244Z,100.00
2022-10-27T08:04:38.921Z,100.00
2022-10-27T08:07:05.591Z,99.99
2022-10-27T08:09:32.303Z,99.83
2022-10-27T08:11:59.607Z,99.09
2022-10-27T08:14:26.120Z,97.05
2022-10-27T08:16:52.699Z,96.71
2022-10-27T08:19:19.344Z,97.00
2022-10-27T08:21:45.958Z,96.79
2022-10-27T08:26:39.230Z,97.68
2022-10-27T08:29:06.122Z,97.94
2022-10-27T08:31:32.722Z,98.19
2022-10-27T08:34:00.189Z,98.19
2022-10-27T08:36:27.136Z,98.55
2022-10-27T08:38:53.893Z,98.86
2022-10-27T08:41:34.691Z,99.11
2022-10-27T08:44:22.656Z,99.05
2022-10-27T08:46:51.663Z,98.87
2022-10-27T08:49:26.162Z,99.26
2022-10-27T08:51:52.726Z,98.69
2022-10-27T08:54:19.856Z,98.13
2022-10-27T08:56:46.768Z,98.21
2022-10-27T08:59:18.651Z,97.45
2022-10-27T09:02:13.341Z,97.31
2022-10-27T09:05:15.046Z,95.33
2022-10-27T09:08:06.141Z,90.24
2022-10-27T09:11:12.148Z,88.84
2022-10-27T09:14:08.040Z,87.91
2022-10-27T09:16:43.484Z,89.07
2022-10-27T09:19:13.959Z,90.05
2022-10-27T09:21:41.500Z,87.26
2022-10-27T09:24:14.227Z,83.90
2022-10-27T09:26:41.425Z,79.88
2022-10-27T09:29:28.820Z,78.57
2022-10-27T09:32:13.593Z,76.80
2022-10-27T09:34:40.852Z,74.59
2022-10-27T09:37:14.930Z,71.44
2022-10-27T09:39:43.770Z,68.92
2022-10-27T09:42:10.569Z,68.84
2022-10-27T09:44:37.283Z,66.88
2022-10-27T09:47:04.069Z,67.60
2022-10-27T09:49:38.395Z,69.78
2022-10-27T09:52:12.524Z,72.47
2022-10-27T09:54:40.202Z,73.36
2022-10-27T09:57:10.910Z,74.47
2022-10-27T09:59:38.241Z,74.93
2022-10-27T10:02:31.877Z,73.41
2022-10-27T10:04:59.580Z,71.45
2022-10-27T10:07:37.342Z,71.05
2022-10-27T10:10:29.710Z,71.08
2022-10-27T10:13:02.806Z,73.18
2022-10-27T10:15:29.942Z,71.46
2022-10-27T10:17:58.204Z,67.93
2022-10-27T10:23:20.605Z,70.18
2022-10-27T10:25:47.561Z,74.31
2022-10-27T10:28:27.299Z,72.72
2022-10-27T10:30:54.218Z,72.98
2022-10-27T10:33:21.786Z,73.53
2022-10-27T10:35:49.205Z,75.71
2022-10-27T10:38:33.151Z,76.33
2022-10-27T10:41:03.946Z,78.53
2022-10-27T10:43:30.654Z,80.27
2022-10-27T10:45:58.176Z,81.10
2022-10-27T10:48:31.070Z,81.94
2022-10-27T10:50:58.114Z,82.89
2022-10-27T10:53:30.725Z,82.72
2022-10-27T10:56:00.926Z,82.38
2022-10-27T10:58:27.986Z,82.84
2022-10-27T11:00:56.794Z,82.79
2022-10-27T11:03:23.841Z,83.17
2022-10-27T11:06:01.855Z,82.07
2022-10-27T11:08:42.127Z,82.64
2022-10-27T11:11:20.152Z,83.03
2022-10-27T11:13:52.784Z,84.84
2022-10-27T11:16:19.283Z,84.49
2022-10-27T11:18:55.551Z,85.33
2022-10-27T11:21:32.693Z,84.80
2022-10-27T11:24:14.070Z,85.44
2022-10-27T11:26:49.731Z,84.51
2022-10-27T11:29:28.360Z,85.13
2022-10-27T11:32:16.340Z,84.99
2022-10-27T11:34:47.128Z,83.92
2022-10-27T11:37:53.622Z,84.33
2022-10-27T11:40:35.508Z,83.90
2022-10-27T11:43:06.296Z,84.36
2022-10-27T11:45:47.474Z,84.99
2022-10-27T11:48:23.885Z,84.42
2022-10-27T11:51:06.859Z,84.71
2022-10-27T11:53:37.575Z,85.98
2022-10-27T11:56:37.221Z,85.88
2022-10-27T11:59:23.205Z,85.42
2022-10-27T12:01:54.277Z,84.73
2022-10-27T12:04:26.876Z,84.52
2022-10-27T12:07:22.145Z,80.14
2022-10-27T12:10:10.165Z,80.13
2022-10-27T12:12:38.254Z,80.10
2022-10-27T12:15:11.311Z,79.02
2022-10-27T12:17:46.529Z,77.01
2022-10-27T12:20:23.229Z,77.51
2022-10-27T12:22:50.208Z,78.54
2022-10-27T12:25:24.735Z,77.34
2022-10-27T12:27:52.936Z,75.75
2022-10-27T12:30:21.207Z,77.51
2022-10-27T12:32:54.483Z,76.73
2022-10-27T12:35:35.076Z,78.48
2022-10-27T12:38:34.322Z,76.85
2022-10-27T12:41:16.187Z,76.21
2022-10-27T12:43:47.333Z,77.99
2022-10-27T12:46:54.902Z,77.24
2022-10-27T12:49:31.155Z,75.91
2022-10-27T12:52:17.794Z,76.11
2022-10-27T12:57:52.113Z,75.16
2022-10-27T13:00:20.872Z,76.45
2022-10-27T13:03:11.831Z,72.56
2022-10-27T13:05:48.394Z,73.96
2022-10-27T13:08:24.931Z,73.01
2022-10-27T13:11:06.706Z,74.46
2022-10-27T13:13:52.343Z,72.75
2022-10-27T13:16:37.645Z,73.52
2022-10-27T13:19:25.665Z,74.19
2022-10-27T13:22:04.018Z,73.10
2022-10-27T13:24:38.149Z,73.61
2022-10-27T13:27:07.083Z,74.48
2022-10-27T13:29:53.161Z,74.67
2022-10-27T13:32:19.907Z,73.97
2022-10-27T13:35:01.769Z,75.08
2022-10-27T13:37:46.975Z,73.95
2022-10-27T13:40:19.765Z,74.08
2022-10-27T13:42:56.794Z,74.36
2022-10-27T13:45:36.073Z,73.74
2022-10-27T13:48:08.784Z,73.07
2022-10-27T13:50:40.050Z,73.27
2022-10-27T13:53:15.585Z,74.20
2022-10-27T13:55:42.973Z,73.33
2022-10-27T13:58:19.131Z,73.74
2022-10-27T14:01:01.236Z,74.80
2022-10-27T14:03:59.356Z,75.00
2022-10-27T14:06:33.936Z,74.59
2022-10-27T14:09:34.275Z,75.80
2022-10-27T14:12:27.945Z,76.39
2022-10-27T14:15:16.962Z,77.19
2022-10-27T14:17:43.873Z,76.79
2022-10-27T14:20:28.004Z,76.90
2022-10-27T14:23:06.513Z,77.92
2022-10-27T14:25:33.262Z,77.60
2022-10-27T14:28:08.754Z,78.61
2022-10-27T14:30:35.317Z,78.71
2022-10-27T14:33:18.066Z,79.51
2022-10-27T14:35:44.649Z,80.15
2022-10-27T14:38:18.521Z,80.80
2022-10-27T14:40:45.589Z,80.17
2022-10-27T14:43:19.031Z,79.82
2022-10-27T14:45:45.653Z,80.30
2022-10-27T14:48:31.885Z,80.47
2022-10-27T14:50:59.404Z,80.21
2022-10-27T14:53:33.291Z,81.57
2022-10-27T14:56:07.161Z,81.63
2022-10-27T14:58:33.697Z,82.57
2022-10-27T15:01:00.325Z,83.21
2022-10-27T15:03:33.641Z,82.60
2022-10-27T15:06:00.167Z,83.49
2022-10-27T15:08:32.110Z,83.69
2022-10-27T15:11:00.261Z,84.17
2022-10-27T15:13:27.115Z,84.19
2022-10-27T15:15:54.908Z,84.14
2022-10-27T15:18:22.666Z,84.21
2022-10-27T15:20:49.957Z,84.15
2022-10-27T15:23:16.903Z,85.54
2022-10-27T15:25:43.905Z,85.58
2022-10-27T15:28:10.799Z,86.16
2022-10-27T15:30:37.374Z,86.16
2022-10-27T15:33:26.096Z,86.96
2022-10-27T15:35:56.525Z,87.14
2022-10-27T15:38:27.853Z,87.79
2022-10-27T15:40:55.817Z,88.24
2022-10-27T15:43:24.364Z,88.86
2022-10-27T15:45:51.221Z,88.99
2022-10-27T15:48:23.808Z,89.90
2022-10-27T15:51:10.951Z,89.71
2022-10-27T15:53:53.760Z,90.43
2022-10-27T15:56:55.188Z,89.71
2022-10-27T15:59:25.579Z,90.47
2022-10-27T16:01:53.547Z,90.51
2022-10-27T16:04:31.171Z,91.55
2022-10-27T16:07:22.076Z,92.38
2022-10-27T16:09:49.279Z,93.53
2022-10-27T16:12:16.566Z,93.85
2022-10-27T16:14:48.553Z,93.80
2022-10-27T16:17:25.155Z,93.68
2022-10-27T16:19:51.873Z,93.54
2022-10-27T16:22:20.408Z,93.53
2022-10-27T16:24:50.283Z,94.29
2022-10-27T16:27:20.420Z,94.67
2022-10-27T16:29:48.529Z,95.35
2022-10-27T16:32:15.256Z,94.88
2022-10-27T16:34:41.939Z,94.37
2022-10-27T16:37:19.863Z,94.71
2022-10-27T16:39:46.445Z,95.16
2022-10-27T16:42:13.098Z,95.11
2022-10-27T16:44:39.803Z,94.58
2022-10-27T16:47:11.487Z,94.88
2022-10-27T16:49:41.175Z,94.70
2022-10-27T16:52:07.886Z,95.07
2022-10-27T16:54:38.552Z,94.93
2022-10-27T16:57:08.494Z,94.51
2022-10-27T16:59:35.187Z,94.25
2022-10-27T17:02:01.865Z,94.75
2022-10-27T17:04:30.604Z,94.47
2022-10-27T17:07:00.454Z,94.89
2022-10-27T17:09:29.255Z,94.82
2022-10-27T17:11:58.284Z,94.96
2022-10-27T17:14:25.161Z,94.88
2022-10-27T17:16:51.741Z,95.48
2022-10-27T17:19:18.868Z,95.17
2022-10-27T17:21:48.284Z,94.99
2022-10-27T17:24:14.887Z,95.12
2022-10-27T17:26:41.521Z,95.76
2022-10-27T17:29:08.219Z,95.41
2022-10-27T17:31:40.504Z,94.27
2022-10-27T17:34:10.208Z,94.79
2022-10-27T17:36:36.993Z,94.82
2022-10-27T17:39:04.070Z,94.69
2022-10-27T17:41:30.843Z,95.45
2022-10-27T17:43:57.600Z,95.60
2022-10-27T17:46:27.463Z,94.80
2022-10-27T17:48:57.800Z,95.59
2022-10-27T17:51:30.965Z,96.59
2022-10-27T17:54:01.524Z,96.77
2022-10-27T17:56:35.387Z,97.00
2022-10-27T17:59:02.091Z,96.42
2022-10-27T18:01:35.786Z,95.29
2022-10-27T18:04:12.087Z,95.93
2022-10-27T18:06:39.135Z,95.90
2022-10-27T18:09:05.966Z,95.55
2022-10-27T18:11:34.044Z,94.49
2022-10-27T18:14:03.831Z,96.04
2022-10-27T18:16:32.779Z,96.03
2022-10-27T18:19:04.161Z,96.29
2022-10-27T18:21:32.897Z,95.93
2022-10-27T18:24:00.148Z,95.09
2022-10-27T18:26:28.000Z,95.63
2022-10-27T18:28:54.650Z,95.24
2022-10-27T18:31:23.218Z,95.11
2022-10-27T18:33:50.198Z,95.75
2022-10-27T18:36:21.777Z,96.54
2022-10-27T18:38:55.131Z,95.67
2022-10-27T18:41:25.977Z,95.98
2022-10-27T18:43:54.321Z,96.23
2022-10-27T18:46:22.623Z,95.86
2022-10-27T18:48:51.523Z,96.54
2022-10-27T18:51:18.552Z,95.81
2022-10-27T18:53:45.799Z,96.25
2022-10-27T18:56:13.513Z,96.76
2022-10-27T18:58:40.193Z,96.10
2022-10-27T19:01:22.337Z,96.38
2022-10-27T19:03:56.079Z,95.77
2022-10-27T19:06:26.943Z,95.88
2022-10-27T19:08:54.667Z,95.67
2022-10-27T19:11:25.898Z,96.33
2022-10-27T19:13:53.771Z,95.59
2022-10-27T19:16:21.606Z,96.47
2022-10-27T19:18:48.364Z,96.35
2022-10-27T19:21:40.559Z,96.54
2022-10-27T19:24:19.430Z,96.35
2022-10-27T19:27:23.301Z,96.68
2022-10-27T19:29:50.309Z,96.63
2022-10-27T19:32:24.406Z,96.31
2022-10-27T19:34:59.863Z,96.47
2022-10-27T19:37:26.678Z,96.72
2022-10-27T19:39:53.588Z,97.84
2022-10-27T19:42:21.245Z,97.33
2022-10-27T19:45:03.232Z,97.54
2022-10-27T19:47:30.580Z,96.52
2022-10-27T19:49:57.574Z,97.13
2022-10-27T19:52:27.459Z,96.94
2022-10-27T19:54:54.107Z,96.89
2022-10-27T19:57:20.907Z,96.49
2022-10-27T19:59:50.216Z,95.86
2022-10-27T20:02:17.663Z,96.39
2022-10-27T20:04:45.033Z,96.62
2022-10-27T20:07:11.901Z,96.57
2022-10-27T20:09:38.996Z,96.62
2022-10-27T20:12:06.440Z,97.53
2022-10-27T20:14:33.807Z,98.85
2022-10-27T20:17:02.655Z,99.10
2022-10-27T20:19:30.719Z,98.32
2022-10-27T20:21:59.644Z,98.48
2022-10-27T20:24:28.954Z,98.02
2022-10-27T20:27:02.107Z,97.72
2022-10-27T20:29:35.201Z,96.92
2022-10-27T20:32:03.496Z,96.80
2022-10-27T20:34:38.593Z,96.82
2022-10-27T20:37:09.060Z,97.49
2022-10-27T20:39:36.229Z,98.36
2022-10-27T20:42:03.394Z,98.75
2022-10-27T20:44:30.202Z,97.80
2022-10-27T20:46:57.069Z,97.35
2022-10-27T20:49:23.891Z,97.11
2022-10-27T20:51:50.750Z,96.91
2022-10-27T20:54:17.538Z,96.80
2022-10-27T20:56:44.526Z,98.69
2022-10-27T20:59:11.590Z,97.66
2022-10-27T21:01:42.209Z,98.51
2022-10-27T21:04:11.835Z,97.42
2022-10-27T21:06:43.439Z,97.50
2022-10-27T21:09:12.184Z,97.31
2022-10-27T21:11:39.050Z,97.93
2022-10-27T21:14:05.978Z,97.29
2022-10-27T21:16:32.930Z,96.69
2022-10-27T21:19:00.938Z,97.00
2022-10-27T21:21:29.215Z,97.68
2022-10-27T21:23:57.627Z,97.80
2022-10-27T21:26:24.399Z,98.52
2022-10-27T21:28:55.182Z,98.15
2022-10-27T21:31:24.110Z,98.11
2022-10-27T21:33:51.054Z,97.24
2022-10-27T21:36:18.067Z,96.69
2022-10-27T21:38:46.056Z,97.62
2022-10-27T21:41:13.544Z,97.45
2022-10-27T21:43:41.818Z,97.92
2022-10-27T21:46:08.601Z,98.93
2022-10-27T21:48:36.339Z,98.01
2022-10-27T21:51:03.032Z,98.01
2022-10-27T21:53:29.783Z,96.79
2022-10-27T21:56:06.905Z,97.16
2022-10-27T21:58:34.205Z,96.47
2022-10-27T22:01:14.878Z,97.55
2022-10-27T22:03:42.319Z,96.51
2022-10-27T22:06:17.430Z,96.39
2022-10-27T22:08:46.915Z,96.44
2022-10-27T22:11:15.751Z,96.83
2022-10-27T22:13:42.603Z,97.96
2022-10-27T22:16:10.961Z,98.11
2022-10-27T22:18:37.723Z,97.50
2022-10-27T22:21:04.985Z,96.71
2022-10-27T22:23:32.342Z,96.94
2022-10-27T22:26:06.789Z,97.75
2022-10-27T22:28:33.539Z,97.56
2022-10-27T22:31:07.486Z,98.84
2022-10-27T22:33:34.289Z,98.72
2022-10-27T22:36:05.100Z,97.29
2022-10-27T22:38:31.891Z,97.59
2022-10-27T22:41:02.764Z,97.30
2022-10-27T22:43:30.095Z,97.62
2022-10-27T22:45:57.124Z,98.14
2022-10-27T22:48:23.867Z,98.17
2022-10-27T22:50:50.836Z,98.43
2022-10-27T22:53:17.507Z,98.81
2022-10-27T22:55:44.218Z,98.54
2022-10-27T22:58:10.982Z,98.45
2022-10-27T23:00:37.659Z,97.47
2022-10-27T23:03:05.222Z,98.45
2022-10-27T23:05:32.002Z,98.01
2022-10-27T23:07:58.742Z,97.61
2022-10-27T23:10:25.515Z,96.86
2022-10-27T23:12:52.562Z,97.84
2022-10-27T23:15:19.607Z,97.96
2022-10-27T23:17:46.478Z,99.50
2022-10-27T23:20:13.374Z,98.90
2022-10-27T23:22:40.460Z,99.43
2022-10-27T23:25:07.579Z,98.08
2022-10-27T23:27:34.523Z,98.65
2022-10-27T23:30:01.317Z,98.23
2022-10-27T23:32:28.466Z,98.26
2022-10-27T23:34:55.182Z,98.72
2022-10-27T23:37:22.019Z,98.15
2022-10-27T23:39:48.825Z,97.80
2022-10-27T23:42:15.583Z,97.52
2022-10-27T23:44:42.272Z,98.49
2022-10-27T23:47:09.066Z,99.19
2022-10-27T23:49:35.924Z,99.80
2022-10-27T23:52:05.906Z,99.62
2022-10-27T23:54:33.787Z,99.39
2022-10-27T23:57:00.676Z,98.48
2022-10-27T23:59:27.367Z,98.78
